Terminal Aerodrome Forecast
Issued by NWS Charleston, WV

Current Version | Previous Version | Graphics & Text | Print | Product List | Glossary On
Versions: 1 2 3 4 5 6 7 8 9 10 11 12 13 14 15 16 17 18 19 20 21 22 23 24 25 26 27 28
000
FTUS41 KRLX 042320
TAFCRW
TAF
KCRW 042320Z 0500/0524 34002KT P6SM SCT060 SCT250
     FM050400 00000KT 6SM BR SCT250
     FM050600 00000KT 4SM BR SCT250
     FM050800 00000KT 2SM BR FEW001 SCT250
     FM050900 00000KT 1/4SM FG BKN001 BKN250
     FM051100 00000KT 2SM BR BKN002 BKN250
     FM051300 00000KT 4SM BR SCT003 BKN250
     FM051400 34002KT P6SM BKN100
     FM052100 VRB02KT P6SM BKN060=

USA.gov is the U.S. government's official web portal to all federal, state and local government web resources and services.